Time;durP1;ratioP1;P1;durP2;ratioP2;P2;SDS_P1;SDS_P2;PMS_P1;PMS_P2;Temp;Humidity;BMP_temperature;BMP_pressure;BME280_temperature;BME280_humidity;BME280_pressure;Samples;Min_cycle;Max_cycle;Signal;HPM_P1;HPM_P2
2022/09/22 00:01:24;;;;;;;10.55;4.55;;;;;;;16.03;54.51;101708.56;6282828;22;20398;-67
2022/09/22 00:03:54;;;;;;;14.82;4.95;;;;;;;16.06;54.58;101716.25;6281813;22;20033;-68
2022/09/22 00:06:27;;;;;;;9.75;4.30;;;;;;;16.11;54.59;101710.50;6309133;22;20019;-68
2022/09/22 00:08:59;;;;;;;11.02;4.78;;;;;;;16.11;54.56;101701.38;6281028;22;20030;-69
2022/09/22 00:11:29;;;;;;;12.38;4.45;;;;;;;16.11;54.21;101702.19;6281536;22;20011;-68
2022/09/22 00:14:00;;;;;;;10.15;4.22;;;;;;;16.10;54.56;101705.28;6309653;22;20027;-62
2022/09/22 00:16:30;;;;;;;12.15;4.40;;;;;;;16.00;54.83;101694.50;6309698;22;20029;-61
2022/09/22 00:18:58;;;;;;;10.18;4.32;;;;;;;16.00;54.93;101705.63;6283122;22;20019;-61
2022/09/22 00:21:26;;;;;;;13.55;5.43;;;;;;;15.99;54.83;101709.56;6282756;22;20022;-61
2022/09/22 00:23:54;;;;;;;11.82;4.63;;;;;;;15.89;54.75;101705.13;6282667;22;20038;-62
2022/09/22 00:26:22;;;;;;;9.35;4.35;;;;;;;15.98;55.22;101702.34;6292501;22;20327;-62
2022/09/22 00:28:50;;;;;;;10.15;4.15;;;;;;;15.99;55.01;101704.78;6309342;22;20022;-62
2022/09/22 00:31:20;;;;;;;11.63;4.32;;;;;;;15.98;54.98;101700.38;6309387;22;20015;-62
2022/09/22 00:33:48;;;;;;;11.85;4.25;;;;;;;16.05;54.85;101700.72;6257678;22;20015;-61
2022/09/22 00:36:17;;;;;;;10.25;3.88;;;;;;;15.97;55.11;101698.72;6309632;22;20026;-62
2022/09/22 00:38:45;;;;;;;10.20;4.38;;;;;;;15.96;55.39;101702.66;6282453;22;20019;-62
2022/09/22 00:41:18;;;;;;;9.85;4.55;;;;;;;15.98;55.44;101699.56;6309436;22;20015;-62
2022/09/22 00:43:49;;;;;;;10.95;4.57;;;;;;;15.98;55.52;101702.34;6231004;22;20033;-61
2022/09/22 00:46:29;;;;;;;16.15;4.53;;;;;;;15.97;55.30;101700.72;6308415;22;20015;-61
2022/09/22 00:49:00;;;;;;;8.57;3.90;;;;;;;15.93;55.58;101702.50;6309917;22;20015;-62
2022/09/22 00:51:31;;;;;;;8.20;4.45;;;;;;;15.90;55.64;101695.63;6309047;22;20015;-62
2022/09/22 00:54:01;;;;;;;9.90;4.32;;;;;;;15.90;55.68;101697.59;6255244;22;20022;-61
2022/09/22 00:56:31;;;;;;;9.43;4.10;;;;;;;15.85;55.93;101697.75;6282170;22;20035;-61
2022/09/22 00:59:07;;;;;;;11.52;4.68;;;;;;;15.83;56.08;101697.28;6310023;22;20020;-64
2022/09/22 01:01:39;;;;;;;9.68;4.43;;;;;;;15.79;56.22;101706.22;6309614;22;20020;-62
2022/09/22 01:04:06;;;;;;;8.63;4.35;;;;;;;15.84;56.04;101701.66;6309316;22;20019;-63
2022/09/22 01:06:34;;;;;;;13.63;4.50;;;;;;;15.78;55.78;101696.28;6308502;22;20015;-63
2022/09/22 01:09:02;;;;;;;10.07;4.28;;;;;;;15.74;56.37;101695.28;6309252;22;20466;-62
2022/09/22 01:11:29;;;;;;;9.70;4.32;;;;;;;15.82;56.16;101693.66;6281044;22;20019;-62
2022/09/22 01:14:24;;;;;;;13.75;4.55;;;;;;;15.80;56.15;101693.16;6256872;22;20026;-62
2022/09/22 01:17:16;;;;;;;8.95;4.38;;;;;;;15.83;56.21;101686.16;6281856;22;20023;-62
2022/09/22 01:20:02;;;;;;;13.13;4.50;;;;;;;15.78;56.47;101678.78;6282259;22;20015;-62
2022/09/22 01:22:49;;;;;;;8.95;4.45;;;;;;;15.79;56.36;101686.78;6309276;22;20022;-62
2022/09/22 01:25:32;;;;;;;10.00;4.20;;;;;;;15.72;56.41;101678.13;6280440;22;20343;-62
2022/09/22 01:28:23;;;;;;;15.63;4.78;;;;;;;15.51;56.64;101673.50;6309568;22;20034;-62
2022/09/22 01:31:01;;;;;;;9.45;4.45;;;;;;;15.60;57.06;101674.34;6308933;22;20011;-62
2022/09/22 01:33:47;;;;;;;10.20;4.45;;;;;;;15.58;57.05;101671.06;6308497;22;20303;-62
2022/09/22 01:36:54;;;;;;;10.63;4.50;;;;;;;15.50;57.16;101669.91;6281621;22;20038;-62
2022/09/22 01:39:26;;;;;;;9.38;4.50;;;;;;;15.54;57.18;101670.91;6281397;22;20015;-61
2022/09/22 01:42:01;;;;;;;11.40;4.70;;;;;;;15.47;56.91;101678.88;6291798;22;20007;-61
2022/09/22 01:44:39;;;;;;;14.85;4.55;;;;;;;15.48;57.04;101677.75;6282296;22;20019;-62
2022/09/22 01:47:19;;;;;;;11.57;4.30;;;;;;;15.52;57.42;101678.75;6282152;22;20022;-61
2022/09/22 01:49:53;;;;;;;9.55;4.70;;;;;;;15.56;57.18;101679.75;6230496;22;20019;-63
2022/09/22 01:52:25;;;;;;;11.75;4.70;;;;;;;15.59;57.04;101679.09;6280406;22;20019;-62
2022/09/22 01:54:58;;;;;;;10.43;3.72;;;;;;;15.58;56.96;101676.63;6281879;22;20500;-62
2022/09/22 01:57:35;;;;;;;8.40;4.30;;;;;;;15.58;57.13;101682.19;6256379;22;20019;-61
2022/09/22 02:00:05;;;;;;;9.93;4.60;;;;;;;15.55;57.22;101685.63;6309254;22;20659;-62
2022/09/22 02:02:46;;;;;;;11.27;4.28;;;;;;;15.51;57.41;101679.88;6283569;22;20015;-61
2022/09/22 02:05:20;;;;;;;9.90;4.25;;;;;;;15.36;57.18;101682.28;6309214;22;20020;-61
2022/09/22 02:07:50;;;;;;;12.23;4.60;;;;;;;15.19;58.19;101674.69;6281500;22;20019;-62
2022/09/22 02:10:21;;;;;;;10.60;4.30;;;;;;;15.33;58.12;101672.63;6280985;22;20478;-62
2022/09/22 02:12:48;;;;;;;8.57;4.25;;;;;;;15.30;57.73;101675.22;6255939;22;20020;-62
2022/09/22 02:18:08;;;;;;;10.40;4.05;;;;;;;15.27;57.98;101665.56;6286320;22;20022;-61
2022/09/22 02:20:35;;;;;;;9.60;4.03;;;;;;;15.01;58.01;101661.88;6281931;22;20319;-62
2022/09/22 02:23:03;;;;;;;8.18;4.28;;;;;;;14.82;58.73;101663.28;6308970;22;20015;-61
2022/09/22 02:25:30;;;;;;;10.15;4.70;;;;;;;15.00;59.05;101662.19;6256197;22;20023;-61
2022/09/22 02:27:58;;;;;;;8.25;4.30;;;;;;;14.85;58.68;101666.22;6309107;22;20022;-62
2022/09/22 02:30:26;;;;;;;10.15;4.15;;;;;;;14.78;59.19;101660.31;6281939;22;20015;-62
2022/09/22 02:32:55;;;;;;;12.65;4.85;;;;;;;14.91;59.85;101667.72;6265566;22;20030;-61
2022/09/22 02:35:24;;;;;;;9.27;4.25;;;;;;;15.03;59.12;101662.38;6308299;22;20021;-62
2022/09/22 02:38:02;;;;;;;9.60;4.53;;;;;;;15.15;59.15;101657.03;6281893;22;20019;-62
2022/09/22 02:40:51;;;;;;;16.13;4.47;;;;;;;15.17;58.66;101662.25;6255490;22;20261;-62
2022/09/22 02:43:39;;;;;;;10.65;4.13;;;;;;;15.19;59.04;101663.59;6281927;22;20019;-62
2022/09/22 02:46:24;;;;;;;7.95;4.50;;;;;;;15.26;58.64;101660.34;6281669;22;20121;-63
2022/09/22 02:48:55;;;;;;;9.10;4.57;;;;;;;15.24;58.59;101655.09;6282415;22;20055;-62
2022/09/22 02:51:22;;;;;;;10.40;4.72;;;;;;;15.22;58.77;101651.03;6282012;22;20427;-62
2022/09/22 02:53:50;;;;;;;10.13;4.45;;;;;;;15.29;58.61;101652.19;6282001;22;20019;-62
2022/09/22 02:56:17;;;;;;;10.23;4.47;;;;;;;15.26;58.58;101646.44;6309923;22;20019;-61
2022/09/22 02:58:44;;;;;;;8.45;4.60;;;;;;;15.10;58.69;101646.06;6311199;22;20026;-62
2022/09/22 03:01:12;;;;;;;12.77;4.35;;;;;;;15.14;58.89;101651.81;6310764;22;20366;-62
2022/09/22 03:03:39;;;;;;;9.68;4.20;;;;;;;15.14;59.19;101644.31;6311185;22;20443;-62
2022/09/22 03:06:07;;;;;;;9.70;3.83;;;;;;;15.13;58.90;101641.84;6310380;22;20022;-62
2022/09/22 03:08:34;;;;;;;8.20;4.30;;;;;;;15.13;58.90;101647.41;6309725;22;20015;-62
2022/09/22 03:11:02;;;;;;;9.15;4.38;;;;;;;15.17;58.70;101642.81;6257387;22;20027;-62
2022/09/22 03:13:29;;;;;;;8.75;4.20;;;;;;;15.08;58.96;101647.56;6310126;22;20015;-62
2022/09/22 03:15:56;;;;;;;9.13;4.35;;;;;;;14.94;59.37;101638.53;6257742;22;20020;-62
2022/09/22 03:18:24;;;;;;;12.82;4.68;;;;;;;14.88;59.99;101643.38;6311119;22;20030;-61
2022/09/22 03:20:51;;;;;;;10.00;4.40;;;;;;;14.99;59.71;101636.44;6310414;22;20022;-62
2022/09/22 03:23:18;;;;;;;10.73;4.53;;;;;;;15.00;59.59;101638.06;6283726;22;20026;-62
2022/09/22 03:25:46;;;;;;;8.15;4.35;;;;;;;15.06;59.33;101633.19;6309781;22;20431;-62
2022/09/22 03:28:13;;;;;;;9.95;4.90;;;;;;;15.03;59.37;101628.28;6310516;22;20320;-61
2022/09/22 03:30:40;;;;;;;10.57;4.53;;;;;;;15.09;59.25;101632.53;6283075;22;20019;-62
2022/09/22 03:33:08;;;;;;;9.90;4.32;;;;;;;15.11;58.98;101631.09;6310437;22;20011;-61
2022/09/22 03:35:37;;;;;;;8.57;4.60;;;;;;;15.10;59.22;101621.09;6310085;22;20015;-62
2022/09/22 03:38:05;;;;;;;11.00;4.40;;;;;;;15.07;59.31;101624.53;6282223;22;20015;-61
2022/09/22 03:40:32;;;;;;;8.90;4.65;;;;;;;15.02;59.17;101630.22;6309842;22;20019;-63
2022/09/22 03:43:00;;;;;;;9.48;4.32;;;;;;;14.89;59.81;101630.34;6283200;22;20018;-62
2022/09/22 03:45:27;;;;;;;9.00;4.35;;;;;;;14.98;59.60;101622.84;6310220;22;20457;-63
2022/09/22 03:47:55;;;;;;;10.23;4.30;;;;;;;14.92;59.84;101627.75;6283323;22;20016;-63
2022/09/22 03:50:22;;;;;;;7.97;4.50;;;;;;;14.99;59.55;101630.06;6281221;22;20026;-64
2022/09/22 03:52:49;;;;;;;10.27;4.40;;;;;;;14.94;59.30;101631.00;6281550;22;20012;-62
2022/09/22 03:55:17;;;;;;;9.35;4.72;;;;;;;14.89;59.63;101628.38;6256762;22;20023;-62
2022/09/22 03:57:44;;;;;;;7.50;4.30;;;;;;;14.94;59.68;101627.44;6282084;22;20129;-62
2022/09/22 04:00:13;;;;;;;10.43;4.50;;;;;;;14.91;59.50;101623.31;6310254;22;20019;-63
2022/09/22 04:02:40;;;;;;;9.77;4.47;;;;;;;14.89;59.75;101619.25;6257582;22;20011;-62
2022/09/22 04:05:08;;;;;;;10.15;4.30;;;;;;;14.93;59.31;101618.28;6310038;22;20049;-62
2022/09/22 04:07:36;;;;;;;8.82;4.65;;;;;;;14.94;59.40;101619.91;6310008;22;20343;-61
2022/09/22 04:10:04;;;;;;;9.20;4.40;;;;;;;14.99;59.24;101613.41;6282328;22;20027;-62
2022/09/22 04:12:31;;;;;;;8.55;3.97;;;;;;;14.93;59.27;101611.91;6309121;22;20387;-61
2022/09/22 04:14:58;;;;;;;8.50;4.47;;;;;;;14.94;59.25;101611.56;6310163;22;20357;-62
2022/09/22 04:17:26;;;;;;;8.45;4.30;;;;;;;14.99;59.41;101611.47;6309626;22;20015;-61
2022/09/22 04:19:54;;;;;;;11.15;4.22;;;;;;;14.89;59.38;101608.94;6310013;22;20081;-61
2022/09/22 04:22:21;;;;;;;11.95;4.50;;;;;;;14.68;59.77;101619.78;6280712;22;20030;-62
2022/09/22 04:24:49;;;;;;;10.10;4.47;;;;;;;14.72;60.07;101610.81;6282015;22;20334;-62
2022/09/22 04:27:17;;;;;;;10.88;4.30;;;;;;;14.72;60.49;101610.81;6308874;22;20046;-62
2022/09/22 04:29:47;;;;;;;;;;;;;;;14.88;59.90;101612.03;6282818;22;20335;-64
2022/09/22 04:32:15;;;;;;;9.77;4.35;;;;;;;14.93;59.71;101607.19;6309568;22;19915;-62
2022/09/22 04:34:43;;;;;;;9.50;4.78;;;;;;;14.94;59.66;101606.03;6309030;22;20029;-63
2022/09/22 04:37:12;;;;;;;11.90;5.07;;;;;;;14.87;59.56;101610.44;6309213;22;20015;-63
2022/09/22 04:39:39;;;;;;;8.85;4.50;;;;;;;14.87;59.87;101605.66;6308767;22;20019;-64
2022/09/22 04:42:10;;;;;;;10.15;4.43;;;;;;;14.85;59.93;101605.19;6309703;22;20018;-62
2022/09/22 04:44:37;;;;;;;10.25;4.63;;;;;;;14.79;60.08;101609.25;6308982;22;20026;-61
2022/09/22 04:47:04;;;;;;;12.23;4.55;;;;;;;14.81;60.18;101609.75;6281161;22;20033;-63
2022/09/22 04:49:32;;;;;;;10.02;4.88;;;;;;;14.80;59.84;101604.53;6308976;22;20015;-62
2022/09/22 04:51:59;;;;;;;10.38;4.65;;;;;;;14.80;60.37;101601.75;6309288;22;20015;-62
2022/09/22 04:54:26;;;;;;;10.07;4.45;;;;;;;14.85;60.21;101599.66;6281670;22;20019;-62
2022/09/22 04:56:54;;;;;;;9.90;5.22;;;;;;;14.84;60.23;101606.31;6309198;22;20016;-62
2022/09/22 04:59:21;;;;;;;10.88;4.60;;;;;;;14.87;59.86;101604.88;6256190;22;20026;-62
2022/09/22 05:01:49;;;;;;;10.18;4.95;;;;;;;14.82;60.28;101605.81;6282082;22;20047;-62
2022/09/22 05:04:17;;;;;;;11.85;4.68;;;;;;;14.86;59.92;101608.78;6282264;22;20015;-63
2022/09/22 05:06:44;;;;;;;9.10;5.32;;;;;;;14.86;60.02;101604.06;6281323;22;20019;-63
2022/09/22 05:09:12;;;;;;;11.30;4.60;;;;;;;14.80;59.90;101608.13;6309424;22;20300;-62
2022/09/22 05:11:39;;;;;;;10.18;4.75;;;;;;;14.81;60.48;101615.28;6309288;22;20023;-61
2022/09/22 05:14:06;;;;;;;8.00;4.20;;;;;;;14.78;60.38;101613.16;6308584;22;20015;-62
2022/09/22 05:16:34;;;;;;;12.43;5.20;;;;;;;14.78;60.03;101610.41;6308927;22;20012;-61
2022/09/22 05:19:01;;;;;;;11.98;5.00;;;;;;;14.72;60.56;101611.66;6309373;22;20035;-63
2022/09/22 05:21:29;;;;;;;11.13;4.60;;;;;;;14.76;60.18;101611.84;6308998;22;20019;-62
2022/09/22 05:23:56;;;;;;;12.07;4.97;;;;;;;14.72;60.71;101614.44;6282056;22;20335;-63
2022/09/22 05:26:23;;;;;;;12.90;5.43;;;;;;;14.79;60.42;101614.78;6280266;22;20026;-61
2022/09/22 05:28:51;;;;;;;10.02;4.53;;;;;;;14.85;60.28;101621.03;6256341;22;20023;-62
2022/09/22 05:31:18;;;;;;;9.80;4.60;;;;;;;14.82;60.46;101630.00;6309474;22;20470;-62
2022/09/22 05:33:49;;;;;;;13.45;4.95;;;;;;;14.70;60.45;101621.44;6309591;22;20018;-63
2022/09/22 05:36:18;;;;;;;20.77;4.75;;;;;;;14.75;60.70;101633.19;6254163;22;20130;-63
2022/09/22 05:38:54;;;;;;;11.13;4.85;;;;;;;14.80;60.40;101632.25;6281668;22;20030;-62
2022/09/22 05:41:35;;;;;;;12.15;4.97;;;;;;;14.74;60.30;101641.84;6308904;22;20015;-62
2022/09/22 05:44:10;;;;;;;11.57;6.43;;;;;;;14.63;61.02;101641.28;6309816;22;20015;-62
2022/09/22 05:46:38;;;;;;;11.90;4.78;;;;;;;14.58;61.02;101638.66;6280893;22;20343;-62
2022/09/22 05:49:20;;;;;;;11.48;5.00;;;;;;;14.71;60.86;101634.16;6280573;22;20323;-64
2022/09/22 05:51:54;;;;;;;14.45;5.70;;;;;;;14.68;61.07;101639.22;6267491;22;20030;-64
2022/09/22 05:54:24;;;;;;;9.65;4.47;;;;;;;14.70;61.25;101638.88;6308104;22;20030;-62
2022/09/22 05:56:51;;;;;;;10.68;5.40;;;;;;;14.68;61.22;101647.53;6308998;22;20070;-63
2022/09/22 05:59:19;;;;;;;11.68;5.03;;;;;;;14.72;61.30;101646.88;6309318;22;20015;-63
2022/09/22 06:01:46;;;;;;;10.55;5.35;;;;;;;14.73;61.15;101641.03;6308809;22;20441;-61
2022/09/22 06:04:14;;;;;;;10.80;5.03;;;;;;;14.77;61.25;101646.78;6309011;22;20015;-63
2022/09/22 06:06:41;;;;;;;23.92;5.30;;;;;;;14.81;61.21;101645.81;6282030;22;20489;-63
2022/09/22 06:09:09;;;;;;;16.15;5.43;;;;;;;14.87;61.09;101652.81;6280825;22;20458;-70
2022/09/22 06:11:37;;;;;;;16.65;5.00;;;;;;;14.66;61.44;101646.22;6256270;22;20604;-69
2022/09/22 06:14:07;;;;;;;14.52;5.53;;;;;;;14.71;62.00;101645.25;6308599;22;20026;-67
2022/09/22 06:16:42;;;;;;;32.92;13.82;;;;;;;14.83;62.01;101639.94;6308433;22;20019;-68
2022/09/22 06:19:10;;;;;;;;;;;;;;;14.80;62.03;101649.72;6310240;22;20019;-68
2022/09/22 06:21:37;;;;;;;19.58;5.97;;;;;;;14.71;62.32;101636.94;6306372;22;19914;-62
2022/09/22 06:24:09;;;;;;;18.77;6.57;;;;;;;14.85;62.06;101637.66;6280805;22;20605;-62
2022/09/22 06:26:37;;;;;;;20.45;6.75;;;;;;;14.88;62.12;101637.00;6257208;22;20117;-63
2022/09/22 06:29:05;;;;;;;23.45;7.85;;;;;;;14.92;62.14;101636.06;6311286;22;20336;-63
2022/09/22 06:31:32;;;;;;;24.95;6.80;;;;;;;15.07;68.01;101632.03;6258094;22;20427;-63
2022/09/22 06:34:02;;;;;;;21.27;6.97;;;;;;;15.22;73.20;101632.41;6284785;22;20364;-61
2022/09/22 06:36:41;;;;;;;13.65;5.50;;;;;;;15.23;75.40;101636.84;6310938;22;20022;-63
2022/09/22 06:39:09;;;;;;;33.55;19.60;;;;;;;15.21;77.75;101632.72;6284146;22;20037;-64
2022/09/22 06:41:37;;;;;;;23.60;11.13;;;;;;;15.13;77.38;101637.09;6230209;22;20019;-62
2022/09/22 06:44:13;;;;;;;17.90;6.55;;;;;;;15.14;76.70;101627.66;6258021;22;20015;-63
2022/09/22 06:46:43;;;;;;;16.95;7.05;;;;;;;15.13;74.78;101630.75;6282728;22;20018;-63
2022/09/22 06:49:10;;;;;;;20.80;7.65;;;;;;;15.07;73.37;101626.47;6309510;22;20338;-63
2022/09/22 06:51:38;;;;;;;23.10;8.25;;;;;;;15.13;72.01;101634.31;6309656;22;20019;-62
2022/09/22 06:54:08;;;;;;;14.90;6.95;;;;;;;15.15;71.74;101628.47;6282489;22;20019;-62
2022/09/22 06:56:43;;;;;;;14.90;5.90;;;;;;;14.97;69.15;101627.59;6282007;22;20019;-62
2022/09/22 06:59:15;;;;;;;22.05;7.25;;;;;;;15.06;69.45;101630.41;6310291;22;20023;-62
2022/09/22 07:01:48;;;;;;;22.45;8.02;;;;;;;15.01;68.18;101639.69;6279743;22;20023;-58
2022/09/22 07:04:24;;;;;;;27.38;9.73;;;;;;;14.96;68.65;101631.50;6310567;22;20012;-56
2022/09/22 07:06:51;;;;;;;16.23;7.28;;;;;;;14.90;68.08;101641.13;6307695;22;20016;-61
2022/09/22 07:09:30;;;;;;;16.00;6.95;;;;;;;14.70;65.50;101640.88;6282330;22;20118;-61
2022/09/22 07:12:03;;;;;;;22.95;7.38;;;;;;;14.62;67.85;101634.94;6277171;22;20018;-61
2022/09/22 07:14:38;;;;;;;46.63;10.73;;;;;;;14.82;67.37;101630.78;6308060;22;20376;-61
2022/09/22 07:17:05;;;;;;;47.78;16.15;;;;;;;14.82;65.96;101636.34;6308267;22;20513;-57
2022/09/22 07:19:35;;;;;;;42.75;11.77;;;;;;;15.01;65.18;101636.91;6285091;22;20015;-62
2022/09/22 07:22:07;;;;;;;41.13;10.65;;;;;;;14.93;65.47;101643.25;6257932;22;20074;-62
2022/09/22 07:24:34;;;;;;;30.05;8.43;;;;;;;15.14;64.77;101635.16;6282331;22;20016;-61
2022/09/22 07:27:03;;;;;;;28.48;8.70;;;;;;;15.18;63.91;101642.53;6308569;22;20023;-64
2022/09/22 07:29:33;;;;;;;32.83;8.88;;;;;;;15.34;63.86;101626.25;6309280;22;20015;-64
2022/09/22 07:32:01;;;;;;;29.25;10.02;;;;;;;15.44;63.63;101631.53;6303415;22;20338;-65
2022/09/22 07:34:45;;;;;;;23.17;8.70;;;;;;;15.51;62.81;101627.13;6307643;22;20018;-66
2022/09/22 07:37:32;;;;;;;18.48;8.13;;;;;;;15.03;60.19;101626.31;6309109;22;20023;-67
2022/09/22 07:40:08;;;;;;;26.08;8.80;;;;;;;15.05;63.23;101632.34;6252481;22;20023;-66
2022/09/22 07:43:00;;;;;;;17.65;7.95;;;;;;;15.24;62.24;101632.91;6308709;22;20019;-66
2022/09/22 07:45:32;;;;;;;21.17;8.70;;;;;;;15.50;62.08;101636.59;6296130;22;20034;-66
2022/09/22 07:50:53;;;;;;;45.95;9.90;;;;;;;15.60;61.21;101633.50;6306227;22;20026;-65
2022/09/22 07:53:20;;;;;;;26.73;10.10;;;;;;;15.65;58.24;101629.75;6307334;22;20015;-64
2022/09/22 07:55:48;;;;;;;37.50;13.02;;;;;;;15.65;60.44;101633.34;6279015;22;20019;-67
2022/09/22 07:58:19;;;;;;;;;;;;;;;14.77;60.20;101636.47;6245201;22;20023;-66
2022/09/22 08:00:47;;;;;;;33.75;10.63;;;;;;;15.15;62.07;101636.81;6302397;22;19923;-63
2022/09/22 08:03:24;;;;;;;23.05;9.48;;;;;;;14.71;61.68;101634.16;6312813;22;20021;-62
2022/09/22 08:06:09;;;;;;;25.10;9.90;;;;;;;14.92;59.97;101630.53;6307938;22;20085;-63
2022/09/22 08:08:40;;;;;;;26.27;9.38;;;;;;;15.13;61.31;101620.44;6279747;22;20023;-62
2022/09/22 08:11:14;;;;;;;28.23;9.80;;;;;;;15.37;59.75;101631.16;6281681;22;20030;-62
2022/09/22 08:13:45;;;;;;;35.50;10.82;;;;;;;15.53;60.44;101624.03;6308735;22;20250;-62
2022/09/22 08:16:13;;;;;;;43.85;12.43;;;;;;;15.72;60.41;101624.53;6277067;22;20020;-62
2022/09/22 08:18:40;;;;;;;56.13;11.85;;;;;;;15.75;58.49;101626.66;6307001;22;20019;-62
2022/09/22 08:21:07;;;;;;;22.95;8.90;;;;;;;15.28;58.86;101622.81;6305910;22;20030;-63
2022/09/22 08:23:38;;;;;;;33.65;9.82;;;;;;;15.63;58.04;101627.31;6304933;22;20022;-62
2022/09/22 08:26:07;;;;;;;26.13;10.32;;;;;;;15.26;58.54;101622.31;6308777;22;20022;-63
2022/09/22 08:28:34;;;;;;;22.25;9.68;;;;;;;15.42;58.71;101625.47;6281589;22;20026;-62
2022/09/22 08:31:02;;;;;;;30.00;11.73;;;;;;;15.66;59.57;101631.38;6278679;22;20477;-63
2022/09/22 08:33:30;;;;;;;28.15;10.13;;;;;;;15.66;56.02;101623.88;6307192;22;20480;-64
2022/09/22 08:36:02;;;;;;;30.13;10.07;;;;;;;15.51;57.81;101629.91;6303447;22;20422;-62
2022/09/22 08:38:33;;;;;;;48.10;12.00;;;;;;;15.46;57.02;101632.81;6281434;22;20042;-63
2022/09/22 08:41:26;;;;;;;24.08;9.73;;;;;;;15.59;59.14;101629.09;6307657;22;20015;-63
2022/09/22 08:43:59;;;;;;;27.00;10.10;;;;;;;15.58;56.57;101623.88;6274417;22;20016;-62
2022/09/22 08:47:00;;;;;;;30.00;10.13;;;;;;;15.78;58.02;101620.44;6282208;22;20026;-65
2022/09/22 08:52:39;;;;;;;26.88;11.13;;;;;;;16.48;54.77;101625.63;6284500;22;20021;-63
2022/09/22 08:55:24;;;;;;;30.50;10.20;;;;;;;16.63;56.68;101625.13;6280374;22;20159;-62
2022/09/22 08:57:55;;;;;;;24.63;9.40;;;;;;;16.60;56.73;101621.03;6256241;22;20019;-62
2022/09/22 09:00:30;;;;;;;17.98;8.95;;;;;;;16.60;55.04;101628.53;6306126;22;20023;-62
2022/09/22 09:03:12;;;;;;;20.45;9.20;;;;;;;16.26;55.70;101620.25;6307975;22;20017;-61
2022/09/22 09:06:02;;;;;;;23.02;9.38;;;;;;;16.59;56.72;101624.13;6280733;22;20454;-64
2022/09/22 09:08:49;;;;;;;25.95;12.02;;;;;;;16.47;53.58;101626.78;6282133;22;20022;-63
2022/09/22 09:12:06;;;;;;;27.77;8.95;;;;;;;16.45;54.11;101623.50;6254832;22;20015;-62
2022/09/22 09:15:05;;;;;;;24.35;10.15;;;;;;;16.16;51.72;101621.41;6307871;22;20103;-60
2022/09/22 09:17:37;;;;;;;21.13;9.33;;;;;;;16.25;53.22;101622.22;6172751;22;20021;-63
2022/09/22 09:20:58;;;;;;;19.58;9.65;;;;;;;16.03;52.44;101619.63;6278321;22;20019;-61
2022/09/22 09:23:53;;;;;;;18.58;9.00;;;;;;;16.18;51.38;101621.09;6080555;23;20036;-64
2022/09/22 09:26:45;;;;;;;24.20;8.38;;;;;;;16.26;51.92;101621.09;6118511;23;20017;-62
2022/09/22 09:29:20;;;;;;;18.10;8.85;;;;;;;16.50;52.14;101620.56;6259521;22;20395;-61
2022/09/22 09:31:51;;;;;;;18.75;9.45;;;;;;;16.54;51.55;101619.59;6253354;22;20022;-61
2022/09/22 09:34:21;;;;;;;14.02;8.27;;;;;;;16.54;49.64;101605.69;6307181;22;20015;-62
2022/09/22 09:36:59;;;;;;;27.48;9.15;;;;;;;16.75;52.09;101606.56;6253016;22;20023;-61
2022/09/22 09:39:32;;;;;;;17.42;7.18;;;;;;;16.96;53.59;101606.66;6306569;22;20022;-62
2022/09/22 09:42:21;;;;;;;18.30;7.93;;;;;;;16.95;51.47;101601.41;6226677;23;20016;-62
2022/09/22 09:44:52;;;;;;;16.77;8.35;;;;;;;17.04;48.70;101605.78;6245112;23;20047;-62
2022/09/22 09:47:35;;;;;;;20.67;9.00;;;;;;;16.81;49.23;101593.28;6244362;23;20019;-63
2022/09/22 09:50:03;;;;;;;21.33;8.07;;;;;;;16.79;48.09;101595.56;6244410;23;20590;-62
2022/09/22 09:52:35;;;;;;;20.75;8.15;;;;;;;16.99;48.60;101592.06;6245976;23;20020;-62
2022/09/22 09:55:28;;;;;;;26.67;8.52;;;;;;;17.06;47.19;101589.56;6220544;23;20016;-62
2022/09/22 10:00:29;;;;;;;16.92;7.05;;;;;;;16.92;46.85;101591.78;6246505;23;20040;-61
2022/09/22 10:01:03;;;;;;;16.20;6.85;;;;;;;17.04;46.63;101586.31;6246286;23;20795;-62
2022/09/22 10:03:35;;;;;;;21.40;6.63;;;;;;;17.22;47.75;101582.28;6247987;23;20031;-62
2022/09/22 10:06:05;;;;;;;17.73;7.63;;;;;;;17.27;45.96;101562.59;6244116;23;20028;-64
2022/09/22 10:08:41;;;;;;;20.95;7.35;;;;;;;17.27;46.04;101572.91;6246456;23;20020;-61
2022/09/22 10:11:10;;;;;;;20.48;6.60;;;;;;;17.34;44.93;101562.03;6220758;23;20027;-61
2022/09/22 10:13:40;;;;;;;17.27;6.45;;;;;;;17.62;44.41;101568.75;6246238;23;20020;-62
2022/09/22 10:16:22;;;;;;;15.57;5.80;;;;;;;17.65;45.35;101566.09;6243905;23;20012;-65
2022/09/22 10:19:09;;;;;;;16.92;5.35;;;;;;;17.67;42.94;101560.19;6245942;22;20259;-63
2022/09/22 10:21:39;;;;;;;14.93;4.75;;;;;;;17.34;41.74;101565.66;6219748;23;20482;-62
2022/09/22 10:24:31;;;;;;;16.63;4.82;;;;;;;17.19;43.45;101559.88;6194904;23;20016;-62
2022/09/22 10:26:58;;;;;;;17.02;5.72;;;;;;;17.27;43.40;101556.19;6248183;23;20024;-61
2022/09/22 10:29:31;;;;;;;16.45;6.72;;;;;;;17.49;42.33;101550.31;6246460;23;20024;-61
2022/09/22 10:32:14;;;;;;;15.27;4.88;;;;;;;17.56;46.95;101551.41;6246912;23;20068;-61
2022/09/22 10:34:47;;;;;;;20.45;7.25;;;;;;;17.91;43.17;101549.13;6247090;22;20020;-61
2022/09/22 10:37:17;;;;;;;19.00;5.18;;;;;;;18.05;44.52;101544.09;6244140;23;20020;-62
2022/09/22 10:39:52;;;;;;;13.18;4.10;;;;;;;18.13;41.55;101545.97;6244603;23;20024;-62
2022/09/22 10:42:32;;;;;;;12.85;3.22;;;;;;;17.92;40.46;101548.00;6245038;22;20143;-61
2022/09/22 10:45:19;;;;;;;12.57;3.00;;;;;;;17.95;40.42;101536.16;6245818;23;20024;-62
2022/09/22 10:47:59;;;;;;;11.93;2.60;;;;;;;17.94;39.98;101538.13;6245083;23;20020;-61
2022/09/22 10:50:36;;;;;;;7.05;2.50;;;;;;;18.13;43.01;101536.78;6248031;23;20020;-62
2022/09/22 10:53:19;;;;;;;7.13;2.50;;;;;;;18.14;40.07;101528.09;6245343;23;20596;-61
2022/09/22 10:56:06;;;;;;;15.13;4.88;;;;;;;18.19;38.67;101521.47;6232192;23;20019;-64
2022/09/22 10:59:10;;;;;;;9.40;3.25;;;;;;;18.06;40.79;101519.81;6237660;23;20065;-63
2022/09/22 11:02:17;;;;;;;12.70;4.88;;;;;;;17.93;40.21;101530.94;6235851;23;20016;-64
2022/09/22 11:04:52;;;;;;;15.00;4.35;;;;;;;18.16;42.91;101522.16;6248214;22;20023;-63
2022/09/22 11:13:38;;;;;;;8.75;2.42;;;;;;;18.33;38.87;101510.81;6247311;23;20051;-65
2022/09/22 11:16:43;;;;;;;6.55;2.08;;;;;;;18.53;38.39;101502.38;6245706;23;20372;-61
2022/09/22 11:19:57;;;;;;;8.77;1.92;;;;;;;18.34;36.29;101512.44;6246689;23;20012;-62
2022/09/22 11:22:55;;;;;;;4.97;1.73;;;;;;;18.18;36.61;101509.50;6214109;22;20016;-62
2022/09/22 11:25:56;;;;;;;8.57;2.03;;;;;;;18.04;37.72;101510.97;6219155;23;20012;-62
2022/09/22 11:28:32;;;;;;;5.15;1.80;;;;;;;17.98;37.68;101505.63;6247262;23;20028;-62
2022/09/22 11:30:59;;;;;;;8.35;2.28;;;;;;;18.13;37.73;101490.22;6246355;23;20459;-64
2022/09/22 11:33:40;;;;;;;9.25;1.90;;;;;;;18.21;36.48;101491.25;6246351;23;20016;-62
2022/09/22 11:36:29;;;;;;;5.28;1.92;;;;;;;18.21;36.91;101497.66;6244607;23;20019;-61
2022/09/22 11:39:23;;;;;;;6.15;1.55;;;;;;;18.38;36.80;101493.84;6245120;23;20017;-62
2022/09/22 11:42:20;;;;;;;8.27;1.70;;;;;;;18.36;36.63;101496.97;6289931;22;20026;-63
2022/09/22 11:45:06;;;;;;;18.25;1.95;;;;;;;18.63;36.83;101493.56;6282401;22;20015;-62
2022/09/22 11:47:45;;;;;;;9.45;1.98;;;;;;;18.54;37.58;101489.22;6309176;22;20027;-62
2022/09/22 11:50:23;;;;;;;10.05;2.10;;;;;;;18.60;39.90;101487.84;6308020;22;20410;-62
2022/09/22 11:53:23;;;;;;;8.82;2.22;;;;;;;18.71;37.55;101477.84;6280951;22;20022;-63
2022/09/22 11:56:17;;;;;;;5.25;1.90;;;;;;;18.76;37.64;101481.22;6302505;22;20011;-61
2022/09/22 11:58:48;;;;;;;10.95;2.42;;;;;;;18.74;36.61;101474.38;6282262;22;20042;-63
2022/09/22 12:01:28;;;;;;;5.65;2.00;;;;;;;18.75;37.35;101481.56;6308164;22;20019;-62
2022/09/22 12:04:06;;;;;;;6.88;1.98;;;;;;;18.60;37.00;101473.91;6281808;22;20030;-63
2022/09/22 12:06:54;;;;;;;6.45;1.83;;;;;;;18.61;38.54;101467.16;6285416;22;20023;-66